Time;durP1;ratioP1;P1;durP2;ratioP2;P2;SDS_P1;SDS_P2;PMS_P1;PMS_P2;Temp;Humidity;BMP_temperature;BMP_pressure;BME280_temperature;BME280_humidity;BME280_pressure;Samples;Min_cycle;Max_cycle;Signal;HPM_P1;HPM_P2
2022/07/24 00:00:50;;;;;;;6.20;3.08;;;16.50;99.90;;;;;;5022475;28;20099;-70
2022/07/24 00:03:16;;;;;;;5.43;3.55;;;16.40;99.90;;;;;;5035918;28;20480;-70
2022/07/24 00:05:41;;;;;;;6.07;3.45;;;16.30;99.90;;;;;;5020239;28;20077;-70
2022/07/24 00:08:07;;;;;;;5.88;3.22;;;16.30;99.90;;;;;;5038047;28;20051;-70
2022/07/24 00:10:33;;;;;;;5.78;3.17;;;16.30;99.90;;;;;;5021231;28;20481;-70
2022/07/24 00:12:58;;;;;;;5.50;3.15;;;16.20;99.90;;;;;;5036102;28;20116;-71
2022/07/24 00:15:24;;;;;;;5.55;2.90;;;16.30;99.90;;;;;;5019948;28;20043;-70
2022/07/24 00:17:50;;;;;;;5.35;3.08;;;16.30;99.90;;;;;;5021117;28;20056;-70
2022/07/24 00:20:15;;;;;;;5.15;2.92;;;16.30;99.90;;;;;;5037490;28;20040;-70
2022/07/24 00:22:41;;;;;;;4.22;2.88;;;16.30;99.90;;;;;;5020284;28;20052;-70
2022/07/24 00:25:07;;;;;;;5.43;2.90;;;16.30;99.90;;;;;;5036531;28;20043;-70
2022/07/24 00:27:32;;;;;;;5.25;3.03;;;16.30;99.90;;;;;;5021138;28;20052;-70
2022/07/24 00:29:58;;;;;;;4.78;3.05;;;16.20;99.90;;;;;;5037407;28;20504;-70
2022/07/24 00:32:24;;;;;;;6.13;3.15;;;16.20;99.90;;;;;;5018782;28;20421;-70
2022/07/24 00:34:50;;;;;;;5.57;3.25;;;16.20;99.90;;;;;;5036325;28;20040;-70
2022/07/24 00:37:15;;;;;;;6.00;2.92;;;16.20;99.90;;;;;;5037176;28;20052;-69
2022/07/24 00:39:41;;;;;;;5.28;3.00;;;16.20;99.90;;;;;;5020931;28;20037;-70
2022/07/24 00:42:06;;;;;;;4.30;2.60;;;16.20;99.90;;;;;;5036640;28;20052;-69
2022/07/24 00:44:32;;;;;;;6.20;3.50;;;16.20;99.90;;;;;;5036251;28;20048;-70
2022/07/24 00:46:58;;;;;;;5.38;2.92;;;16.20;99.90;;;;;;5036975;28;20153;-70
2022/07/24 00:49:23;;;;;;;5.78;3.10;;;16.20;99.90;;;;;;5037203;28;20114;-70
2022/07/24 00:51:51;;;;;;;7.65;3.55;;;16.20;99.90;;;;;;5037220;28;20563;-70
2022/07/24 00:54:19;;;;;;;6.00;3.10;;;16.30;99.90;;;;;;5018381;28;20037;-70
2022/07/24 00:56:47;;;;;;;5.25;3.58;;;16.20;99.90;;;;;;5037012;28;20363;-70
2022/07/24 00:59:13;;;;;;;6.20;3.30;;;16.20;99.90;;;;;;5036977;28;20041;-70
2022/07/24 01:01:39;;;;;;;8.75;3.47;;;16.20;99.90;;;;;;5018572;28;20041;-71
2022/07/24 01:04:04;;;;;;;7.82;3.33;;;16.20;99.90;;;;;;5020400;28;20032;-71
2022/07/24 01:06:30;;;;;;;6.63;3.05;;;16.10;99.90;;;;;;5019294;28;20040;-70
2022/07/24 01:08:56;;;;;;;5.40;3.03;;;16.10;99.90;;;;;;5036449;28;20413;-70
2022/07/24 01:11:22;;;;;;;8.80;3.50;;;16.20;99.90;;;;;;5017540;28;20036;-70
2022/07/24 01:13:49;;;;;;;6.72;3.50;;;16.20;99.90;;;;;;5016758;28;20052;-70
2022/07/24 01:16:15;;;;;;;6.38;3.30;;;16.10;99.90;;;;;;5019652;28;20040;-70
2022/07/24 01:18:41;;;;;;;7.15;3.40;;;16.10;99.90;;;;;;5019002;28;20044;-70
2022/07/24 01:21:07;;;;;;;5.57;3.03;;;16.10;99.90;;;;;;5018285;28;20044;-70
2022/07/24 01:23:33;;;;;;;6.13;3.47;;;16.20;99.90;;;;;;5033651;28;20071;-71
2022/07/24 01:25:59;;;;;;;6.22;3.08;;;16.20;99.90;;;;;;5018556;28;20033;-71
2022/07/24 01:28:25;;;;;;;7.10;3.42;;;16.10;99.90;;;;;;5019271;28;20055;-70
2022/07/24 01:30:50;;;;;;;5.95;3.78;;;16.10;99.90;;;;;;5034557;28;20059;-70
2022/07/24 01:33:16;;;;;;;7.50;4.00;;;16.20;99.90;;;;;;5034283;28;20033;-71
2022/07/24 01:35:42;;;;;;;5.88;3.90;;;16.20;99.90;;;;;;5035227;28;20033;-70
2022/07/24 01:38:09;;;;;;;6.72;3.50;;;16.10;99.90;;;;;;5035417;28;20067;-71
2022/07/24 01:40:35;;;;;;;7.32;3.90;;;16.00;99.90;;;;;;5034276;28;20037;-71
2022/07/24 01:43:01;;;;;;;7.35;3.95;;;16.10;99.90;;;;;;5019129;28;20098;-70
2022/07/24 01:45:27;;;;;;;8.45;4.38;;;16.10;99.90;;;;;;5035104;28;20099;-71
2022/07/24 01:47:53;;;;;;;6.13;3.78;;;16.20;99.90;;;;;;5035679;28;20048;-71
2022/07/24 01:50:18;;;;;;;7.82;3.97;;;16.20;99.90;;;;;;5035284;28;20037;-71
2022/07/24 01:52:44;;;;;;;6.82;3.95;;;16.20;99.90;;;;;;5019123;28;20493;-71
2022/07/24 01:55:11;;;;;;;6.75;3.83;;;16.30;99.90;;;;;;5035105;28;20091;-71
2022/07/24 01:57:36;;;;;;;8.80;4.30;;;16.30;99.90;;;;;;5035800;28;20127;-71
2022/07/24 02:00:05;;;;;;;7.43;4.40;;;16.20;99.90;;;;;;5018525;28;20112;-70
2022/07/24 02:02:31;;;;;;;7.35;4.25;;;16.20;99.90;;;;;;5019166;28;20079;-70
2022/07/24 02:04:56;;;;;;;7.88;4.70;;;16.10;99.90;;;;;;5018604;28;20610;-71
2022/07/24 02:07:22;;;;;;;6.90;4.40;;;16.10;99.90;;;;;;5035438;28;20045;-71
2022/07/24 02:09:47;;;;;;;8.80;5.00;;;16.20;99.90;;;;;;5033925;28;20040;-70
2022/07/24 02:12:13;;;;;;;6.68;4.57;;;16.20;99.90;;;;;;5034478;28;20037;-71
2022/07/24 02:14:39;;;;;;;7.88;4.50;;;16.20;99.90;;;;;;5035520;28;20178;-71
2022/07/24 02:17:04;;;;;;;9.25;4.70;;;16.20;99.90;;;;;;5035668;28;20481;-71
2022/07/24 02:19:30;;;;;;;7.07;4.22;;;16.20;99.90;;;;;;5035407;28;20043;-70
2022/07/24 02:21:56;;;;;;;7.97;4.70;;;16.20;99.90;;;;;;5017477;28;20041;-71
2022/07/24 02:24:22;;;;;;;7.38;4.38;;;16.10;99.90;;;;;;5018904;28;20047;-70
2022/07/24 02:26:48;;;;;;;7.80;4.93;;;16.10;99.90;;;;;;5035247;28;20045;-71
2022/07/24 02:29:14;;;;;;;8.00;4.65;;;16.10;99.90;;;;;;5017971;28;20040;-70
2022/07/24 02:31:39;;;;;;;8.48;4.38;;;16.10;99.90;;;;;;5034065;28;20144;-71
2022/07/24 02:34:05;;;;;;;8.32;4.93;;;16.20;99.90;;;;;;5035169;28;20085;-71
2022/07/24 02:36:31;;;;;;;8.02;4.90;;;16.20;99.90;;;;;;5035052;28;20077;-70
2022/07/24 02:38:56;;;;;;;8.02;4.72;;;16.20;99.90;;;;;;5018955;28;20446;-70
2022/07/24 02:41:22;;;;;;;7.30;5.00;;;16.30;99.90;;;;;;5016460;28;20052;-70
2022/07/24 02:43:47;;;;;;;8.05;4.93;;;16.20;99.90;;;;;;5018689;28;20044;-70
2022/07/24 02:46:13;;;;;;;8.23;5.22;;;16.20;99.90;;;;;;5035136;28;20041;-70
2022/07/24 02:48:39;;;;;;;7.53;5.00;;;16.30;99.90;;;;;;5035004;28;20041;-70
2022/07/24 02:51:04;;;;;;;7.80;5.18;;;16.20;99.90;;;;;;5033866;28;20044;-70
2022/07/24 02:53:30;;;;;;;8.18;5.13;;;16.20;99.90;;;;;;5035348;28;20098;-70
2022/07/24 02:55:56;;;;;;;10.10;5.30;;;16.20;99.90;;;;;;5034263;28;20500;-70
2022/07/24 02:58:21;;;;;;;7.75;5.00;;;16.20;99.90;;;;;;5018769;28;20044;-70
2022/07/24 03:00:47;;;;;;;9.88;5.20;;;16.10;99.90;;;;;;5034275;28;20033;-70
2022/07/24 03:03:12;;;;;;;9.07;5.68;;;16.20;99.90;;;;;;5018544;28;20068;-71
2022/07/24 03:05:38;;;;;;;8.20;5.30;;;16.10;99.90;;;;;;5034015;28;20045;-70
2022/07/24 03:08:04;;;;;;;7.68;5.20;;;16.20;99.90;;;;;;5030387;28;20099;-70
2022/07/24 03:10:30;;;;;;;8.65;5.25;;;16.20;99.90;;;;;;5032690;28;20151;-70
2022/07/24 03:12:55;;;;;;;10.95;5.50;;;16.30;99.90;;;;;;5034966;28;20075;-70
2022/07/24 03:15:21;;;;;;;8.40;5.30;;;16.20;99.90;;;;;;5033248;28;20455;-70
2022/07/24 03:17:56;;;;;;;8.98;5.43;;;16.10;99.90;;;;;;5035060;28;20064;-70
2022/07/24 03:20:24;;;;;;;9.05;5.32;;;16.10;99.90;;;;;;5024944;28;20037;-70
2022/07/24 03:22:49;;;;;;;8.82;5.70;;;16.10;99.90;;;;;;5033174;28;20072;-70
2022/07/24 03:25:16;;;;;;;9.70;5.65;;;16.10;99.90;;;;;;5033052;28;20072;-70
2022/07/24 03:27:41;;;;;;;8.48;5.70;;;16.20;99.90;;;;;;5014020;28;20041;-70
2022/07/24 03:30:08;;;;;;;8.27;5.07;;;16.10;99.90;;;;;;5020753;28;20389;-70
2022/07/24 03:32:35;;;;;;;8.15;5.97;;;16.10;99.90;;;;;;5029207;28;20421;-70
2022/07/24 03:35:01;;;;;;;10.73;6.20;;;16.10;99.90;;;;;;5020081;28;20516;-70
2022/07/24 03:37:27;;;;;;;8.63;5.20;;;16.10;99.90;;;;;;5036190;28;20071;-70
2022/07/24 03:39:52;;;;;;;7.88;4.97;;;16.10;99.90;;;;;;5019886;28;20123;-70
2022/07/24 03:42:18;;;;;;;8.90;5.80;;;16.00;99.90;;;;;;5038590;28;20120;-70
2022/07/24 03:44:43;;;;;;;7.30;5.50;;;16.00;99.90;;;;;;5037466;28;20041;-70
2022/07/24 03:47:09;;;;;;;9.18;5.95;;;15.90;99.90;;;;;;5019009;28;20044;-70
2022/07/24 03:49:34;;;;;;;7.72;5.60;;;16.00;99.90;;;;;;5020744;28;20127;-70
2022/07/24 03:52:00;;;;;;;6.97;4.82;;;15.90;99.90;;;;;;5019512;28;20044;-70
2022/07/24 03:54:26;;;;;;;8.95;5.47;;;15.90;99.90;;;;;;5036536;28;20041;-70
2022/07/24 03:56:51;;;;;;;8.93;5.47;;;15.90;99.90;;;;;;5037149;28;20622;-70
2022/07/24 03:59:18;;;;;;;9.43;5.97;;;15.90;99.90;;;;;;5035886;28;20502;-70
2022/07/24 04:01:44;;;;;;;8.80;5.18;;;16.00;99.90;;;;;;5019273;28;20385;-70
2022/07/24 04:04:10;;;;;;;8.65;5.20;;;16.00;99.90;;;;;;5037463;28;20048;-70
2022/07/24 04:06:35;;;;;;;9.23;6.05;;;16.00;99.90;;;;;;5035119;28;20033;-70
2022/07/24 04:09:02;;;;;;;10.05;6.13;;;16.00;99.90;;;;;;5018713;28;20063;-70
2022/07/24 04:11:28;;;;;;;8.18;5.80;;;16.10;99.90;;;;;;5020410;28;20045;-70
2022/07/24 04:13:54;;;;;;;11.32;6.22;;;16.10;99.90;;;;;;5018440;28;20091;-70
2022/07/24 04:16:20;;;;;;;9.27;5.55;;;16.10;99.90;;;;;;5036690;28;20043;-70
2022/07/24 04:18:46;;;;;;;8.38;5.38;;;16.00;99.90;;;;;;5036408;28;20116;-70
2022/07/24 04:21:11;;;;;;;8.23;5.53;;;16.00;99.90;;;;;;5036060;28;20132;-70
2022/07/24 04:23:37;;;;;;;8.73;5.35;;;16.10;99.90;;;;;;5018783;28;20140;-70
2022/07/24 04:26:03;;;;;;;7.93;5.63;;;16.10;99.90;;;;;;5037084;28;20040;-70
2022/07/24 04:28:29;;;;;;;7.90;5.32;;;16.00;99.90;;;;;;5032087;28;20051;-70
2022/07/24 04:30:55;;;;;;;7.63;5.70;;;16.00;99.90;;;;;;5033485;28;20049;-70
2022/07/24 04:33:20;;;;;;;8.25;5.95;;;15.90;99.90;;;;;;5012002;28;20041;-70
2022/07/24 04:35:46;;;;;;;7.85;5.50;;;15.90;99.90;;;;;;5020669;28;20041;-70
2022/07/24 04:38:12;;;;;;;8.13;5.30;;;15.90;99.90;;;;;;5017679;28;20037;-70
2022/07/24 04:40:37;;;;;;;9.23;5.47;;;15.80;99.90;;;;;;5036522;28;20075;-70
2022/07/24 04:43:03;;;;;;;7.75;5.00;;;15.80;99.90;;;;;;5034499;28;20048;-70
2022/07/24 04:45:28;;;;;;;8.20;5.55;;;15.80;99.90;;;;;;5034595;28;20387;-70
2022/07/24 04:47:54;;;;;;;8.15;5.40;;;15.90;99.90;;;;;;5020374;28;20438;-70
2022/07/24 04:50:20;;;;;;;8.82;5.13;;;15.80;99.90;;;;;;5035405;28;20375;-70
2022/07/24 04:52:45;;;;;;;8.57;5.43;;;15.80;99.90;;;;;;5037167;28;20036;-70
2022/07/24 04:55:12;;;;;;;7.47;5.20;;;15.90;99.90;;;;;;5034147;28;20497;-70
2022/07/24 04:57:38;;;;;;;8.13;5.53;;;15.90;99.90;;;;;;5016405;28;20025;-70
2022/07/24 05:00:07;;;;;;;8.25;5.45;;;15.90;99.90;;;;;;5019490;28;20481;-70
2022/07/24 05:02:32;;;;;;;9.10;5.68;;;16.00;99.90;;;;;;5033512;28;20086;-70
2022/07/24 05:04:58;;;;;;;9.18;6.20;;;15.90;99.90;;;;;;5035626;28;20045;-70
2022/07/24 05:07:23;;;;;;;10.00;5.78;;;16.00;99.90;;;;;;5018423;28;20037;-70
2022/07/24 05:09:49;;;;;;;9.68;6.20;;;16.00;99.90;;;;;;5035275;28;20094;-70
2022/07/24 05:12:14;;;;;;;8.63;5.85;;;16.10;99.90;;;;;;5018331;28;20041;-70
2022/07/24 05:14:40;;;;;;;8.63;5.75;;;16.00;99.90;;;;;;5030890;28;20045;-70
2022/07/24 05:17:06;;;;;;;7.50;5.18;;;16.10;99.90;;;;;;5034567;28;20029;-70
2022/07/24 05:19:31;;;;;;;8.32;6.20;;;16.10;99.90;;;;;;5035752;28;20087;-70
2022/07/24 05:21:57;;;;;;;9.18;5.95;;;16.20;99.90;;;;;;5018040;28;20386;-70
2022/07/24 05:24:24;;;;;;;8.93;5.82;;;16.40;99.90;;;;;;5035656;28;20037;-70
2022/07/24 05:26:50;;;;;;;8.27;5.68;;;16.50;99.90;;;;;;5034035;28;20083;-70
2022/07/24 05:29:16;;;;;;;8.18;5.65;;;16.50;99.90;;;;;;5016777;28;20033;-70
2022/07/24 05:31:41;;;;;;;8.27;5.40;;;16.40;99.90;;;;;;5017290;28;20045;-70
2022/07/24 05:34:07;;;;;;;9.40;5.80;;;16.40;99.90;;;;;;5017993;28;20052;-70
2022/07/24 05:36:33;;;;;;;8.52;5.82;;;16.50;99.90;;;;;;5018589;28;20037;-70
2022/07/24 05:38:58;;;;;;;7.90;5.55;;;16.50;99.90;;;;;;5017373;28;20477;-70
2022/07/24 05:41:24;;;;;;;7.88;5.60;;;16.60;99.90;;;;;;5033379;28;20107;-70
2022/07/24 05:43:49;;;;;;;8.40;5.97;;;16.70;99.90;;;;;;5034544;28;20040;-70
2022/07/24 05:46:15;;;;;;;10.48;6.10;;;16.70;99.90;;;;;;5034637;28;20064;-71
2022/07/24 05:48:40;;;;;;;11.32;6.00;;;16.80;99.90;;;;;;5033940;28;20114;-70
2022/07/24 05:51:06;;;;;;;9.10;6.43;;;16.90;99.90;;;;;;5035016;28;20448;-70
2022/07/24 05:53:32;;;;;;;10.77;6.43;;;16.90;99.90;;;;;;5018381;28;20037;-70
2022/07/24 05:55:57;;;;;;;9.00;6.53;;;17.00;99.90;;;;;;5016347;28;20037;-70
2022/07/24 05:58:23;;;;;;;9.20;6.93;;;17.10;99.90;;;;;;5016888;28;20123;-70
2022/07/24 06:00:49;;;;;;;11.43;7.13;;;17.30;99.90;;;;;;5032825;28;20389;-70
2022/07/24 06:03:14;;;;;;;9.25;6.90;;;17.30;99.90;;;;;;5033975;28;20120;-70
2022/07/24 06:05:40;;;;;;;12.95;7.28;;;17.40;99.90;;;;;;5033556;28;20048;-70
2022/07/24 06:08:06;;;;;;;10.40;7.15;;;17.50;99.90;;;;;;5017753;28;20037;-70
2022/07/24 06:10:31;;;;;;;12.27;7.28;;;17.50;99.90;;;;;;5016924;28;20491;-70
2022/07/24 06:12:58;;;;;;;12.13;7.43;;;17.60;99.90;;;;;;5032593;28;20056;-71
2022/07/24 06:15:23;;;;;;;11.13;8.18;;;17.80;99.90;;;;;;5034726;28;20516;-70
2022/07/24 06:17:49;;;;;;;10.65;7.78;;;18.00;99.90;;;;;;5033119;28;20033;-70
2022/07/24 06:20:16;;;;;;;12.43;8.27;;;18.20;99.90;;;;;;5018425;28;20037;-70
2022/07/24 06:22:43;;;;;;;10.98;8.00;;;18.30;99.90;;;;;;5033547;28;20041;-70
2022/07/24 06:25:09;;;;;;;11.60;8.15;;;18.40;99.90;;;;;;5018935;28;20040;-70
2022/07/24 06:27:43;;;;;;;10.48;8.20;;;18.60;99.90;;;;;;5032341;28;20044;-70
2022/07/24 06:30:21;;;;;;;13.20;7.97;;;18.60;99.90;;;;;;5018128;28;20551;-70
2022/07/24 06:32:47;;;;;;;11.65;8.68;;;18.70;99.90;;;;;;5013699;28;20081;-70
2022/07/24 06:35:14;;;;;;;11.57;9.05;;;18.80;99.90;;;;;;5032406;28;20472;-70
2022/07/24 06:37:40;;;;;;;14.80;8.68;;;18.80;99.90;;;;;;5017680;28;20102;-70
2022/07/24 06:40:06;;;;;;;13.13;10.00;;;18.90;99.90;;;;;;5034295;28;20465;-70
2022/07/24 06:42:32;;;;;;;12.82;9.45;;;18.90;99.90;;;;;;5032271;28;20120;-70
2022/07/24 06:44:58;;;;;;;13.68;9.60;;;19.00;99.90;;;;;;5010799;28;20521;-71
2022/07/24 06:47:25;;;;;;;12.95;9.32;;;19.00;99.90;;;;;;5034119;28;20041;-70
2022/07/24 06:49:51;;;;;;;12.50;9.27;;;19.10;99.90;;;;;;5005209;28;20052;-70
2022/07/24 06:52:17;;;;;;;12.80;10.35;;;19.20;99.90;;;;;;5016851;28;20520;-70
2022/07/24 06:54:43;;;;;;;13.02;9.80;;;19.20;99.90;;;;;;5035926;28;20072;-70
2022/07/24 06:57:08;;;;;;;14.15;10.43;;;19.30;99.90;;;;;;5033346;28;20417;-70
2022/07/24 06:59:34;;;;;;;13.80;10.25;;;19.30;99.90;;;;;;5028354;28;20087;-70
2022/07/24 07:01:59;;;;;;;14.60;11.52;;;19.40;99.90;;;;;;5019421;28;20041;-70
2022/07/24 07:04:25;;;;;;;15.40;11.48;;;19.50;99.90;;;;;;5033761;28;20036;-70
2022/07/24 07:06:50;;;;;;;13.15;10.52;;;19.50;99.90;;;;;;5015881;28;20037;-73
2022/07/24 07:09:16;;;;;;;15.43;11.07;;;19.60;99.90;;;;;;5026476;28;20033;-73
2022/07/24 07:11:42;;;;;;;15.10;11.27;;;19.70;99.90;;;;;;5037779;28;20554;-73
2022/07/24 07:14:07;;;;;;;15.25;11.60;;;19.80;99.90;;;;;;5022111;28;20495;-72
2022/07/24 07:16:33;;;;;;;14.73;12.20;;;19.80;99.90;;;;;;5036161;28;20029;-72
2022/07/24 07:18:59;;;;;;;16.20;12.52;;;19.90;99.90;;;;;;5021016;28;20033;-72
2022/07/24 07:21:24;;;;;;;15.85;12.15;;;19.90;99.90;;;;;;5037126;28;20071;-72
2022/07/24 07:23:50;;;;;;;14.55;11.75;;;20.00;99.90;;;;;;5020376;28;20033;-72
2022/07/24 07:26:16;;;;;;;16.45;12.40;;;20.10;99.90;;;;;;5024674;28;20052;-72
2022/07/24 07:28:42;;;;;;;15.85;12.68;;;20.10;99.90;;;;;;5038004;28;20036;-72
2022/07/24 07:31:07;;;;;;;17.85;12.40;;;20.20;99.90;;;;;;5020544;28;20056;-72
2022/07/24 07:33:33;;;;;;;16.23;13.00;;;20.40;99.90;;;;;;5037418;28;20053;-72
2022/07/24 07:35:59;;;;;;;18.10;12.40;;;20.40;99.90;;;;;;5036848;28;20482;-72
2022/07/24 07:38:24;;;;;;;16.02;12.43;;;20.60;99.90;;;;;;5023936;28;20076;-73
2022/07/24 07:40:50;;;;;;;15.32;12.20;;;20.80;99.90;;;;;;5029940;28;20115;-73
2022/07/24 07:43:16;;;;;;;16.63;12.40;;;20.90;99.90;;;;;;5034295;28;20033;-73
2022/07/24 07:45:41;;;;;;;14.95;11.43;;;21.00;99.90;;;;;;5037225;28;20072;-72
2022/07/24 07:48:07;;;;;;;15.00;11.43;;;21.10;99.90;;;;;;5019274;28;20481;-73
2022/07/24 07:50:32;;;;;;;15.52;10.90;;;21.10;99.90;;;;;;5037766;28;20095;-72
2022/07/24 07:52:58;;;;;;;15.82;11.30;;;21.00;99.90;;;;;;5017852;28;20112;-73
2022/07/24 07:55:24;;;;;;;14.60;10.55;;;21.00;99.90;;;;;;5028613;28;20456;-73
2022/07/24 07:57:49;;;;;;;14.55;9.68;;;21.00;99.90;;;;;;5034545;28;20036;-73
2022/07/24 08:00:16;;;;;;;12.38;8.85;;;21.10;99.90;;;;;;5036671;28;20082;-73
2022/07/24 08:02:41;;;;;;;12.65;7.97;;;21.00;99.90;;;;;;5032001;28;20064;-73
2022/07/24 08:05:08;;;;;;;12.27;8.43;;;21.00;99.90;;;;;;5017695;28;20485;-73
2022/07/24 08:07:34;;;;;;;11.48;8.38;;;21.00;99.90;;;;;;5053595;28;20052;-73
2022/07/24 08:10:00;;;;;;;11.57;6.57;;;21.10;99.90;;;;;;5024439;28;20067;-73
2022/07/24 08:12:26;;;;;;;9.45;6.55;;;21.30;99.90;;;;;;5050798;28;20493;-73
2022/07/24 08:14:51;;;;;;;11.80;6.18;;;21.40;99.90;;;;;;5041252;28;20124;-73
2022/07/24 08:17:17;;;;;;;9.45;5.63;;;21.60;99.90;;;;;;5035248;28;20539;-73
2022/07/24 08:19:42;;;;;;;10.50;5.80;;;21.80;99.90;;;;;;5035342;28;20037;-73
2022/07/24 08:22:08;;;;;;;8.93;5.63;;;21.90;99.90;;;;;;5019303;28;20043;-73
2022/07/24 08:24:34;;;;;;;9.10;5.47;;;22.00;99.90;;;;;;5030544;28;20052;-73
2022/07/24 08:27:00;;;;;;;12.55;5.57;;;22.10;99.90;;;;;;5035224;28;20048;-73
2022/07/24 08:29:26;;;;;;;8.30;4.65;;;22.20;99.90;;;;;;5036928;28;20040;-73
2022/07/24 08:31:52;;;;;;;6.53;4.10;;;22.30;99.90;;;;;;5031658;28;20065;-73
2022/07/24 08:34:18;;;;;;;7.97;4.88;;;22.30;99.90;;;;;;5033069;28;20084;-71
2022/07/24 08:36:46;;;;;;;9.35;4.20;;;22.50;99.90;;;;;;5027525;28;20033;-71
2022/07/24 08:39:15;;;;;;;7.07;4.25;;;22.50;99.90;;;;;;5035836;28;20039;-71
2022/07/24 08:41:44;;;;;;;6.68;4.03;;;22.60;99.90;;;;;;5019237;28;20049;-71
2022/07/24 08:44:10;;;;;;;8.25;3.95;;;22.80;99.90;;;;;;5035610;28;20405;-71
2022/07/24 08:46:41;;;;;;;6.15;3.85;;;22.70;99.90;;;;;;5036649;28;20029;-72
2022/07/24 08:49:12;;;;;;;7.85;4.22;;;22.80;99.90;;;;;;5035995;28;20079;-72
2022/07/24 08:51:40;;;;;;;5.95;3.83;;;22.70;99.90;;;;;;5030236;28;20520;-72
2022/07/24 08:54:07;;;;;;;7.88;4.38;;;22.70;99.90;;;;;;5010902;28;20041;-72
2022/07/24 08:56:33;;;;;;;7.88;4.00;;;22.70;99.90;;;;;;5032133;28;20048;-72
2022/07/24 08:58:59;;;;;;;9.52;4.57;;;22.80;99.90;;;;;;5025020;28;20033;-72
2022/07/24 09:01:25;;;;;;;8.48;4.38;;;23.10;99.90;;;;;;5036207;28;20135;-72
2022/07/24 09:03:51;;;;;;;9.38;3.83;;;23.20;99.90;;;;;;5035464;28;20056;-72
2022/07/24 09:06:17;;;;;;;6.82;4.07;;;23.20;99.90;;;;;;5035040;28;20405;-72
2022/07/24 09:09:03;;;;;;;7.43;4.07;;;23.20;99.90;;;;;;5032368;28;20069;-72
2022/07/24 09:11:29;;;;;;;9.32;4.25;;;23.20;99.90;;;;;;5032036;28;20486;-72
2022/07/24 09:16:46;;;;;;;9.60;4.20;;;23.30;99.90;;;;;;5035520;28;20053;-72
2022/07/24 09:19:13;;;;;;;7.68;3.90;;;23.30;99.90;;;;;;5031874;28;20041;-72
2022/07/24 09:21:41;;;;;;;8.55;3.80;;;23.40;99.90;;;;;;5004243;28;20079;-73
2022/07/24 09:24:22;;;;;;;7.10;4.20;;;23.30;99.90;;;;;;5021386;28;20041;-73
2022/07/24 09:26:55;;;;;;;7.68;3.72;;;23.30;99.90;;;;;;5018037;28;20037;-72
2022/07/24 09:29:21;;;;;;;6.65;3.78;;;23.40;99.90;;;;;;5019362;28;20552;-72
2022/07/24 09:31:51;;;;;;;6.50;3.47;;;23.40;99.90;;;;;;5031247;28;20052;-72
2022/07/24 09:34:17;;;;;;;9.35;3.78;;;23.30;99.90;;;;;;4995461;28;20088;-72
2022/07/24 09:36:58;;;;;;;5.63;2.83;;;23.30;99.90;;;;;;5015630;28;20069;-72
2022/07/24 09:39:25;;;;;;;10.40;3.47;;;23.30;99.90;;;;;;4998026;28;20042;-72
2022/07/24 09:41:53;;;;;;;8.68;4.07;;;23.40;99.90;;;;;;4998056;28;20044;-72
2022/07/24 09:44:19;;;;;;;5.47;3.20;;;23.60;99.90;;;;;;5015875;28;20521;-72
2022/07/24 09:46:53;;;;;;;8.10;3.50;;;23.60;99.90;;;;;;4999694;28;20168;-72
2022/07/24 09:49:20;;;;;;;7.70;3.20;;;23.70;99.90;;;;;;4999547;28;20037;-72
2022/07/24 09:52:04;;;;;;;8.20;3.67;;;23.70;99.90;;;;;;4999052;28;20045;-72
2022/07/24 09:54:32;;;;;;;7.78;3.30;;;23.80;99.90;;;;;;4985475;28;20038;-72
2022/07/24 09:57:24;;;;;;;5.88;3.28;;;23.90;99.90;;;;;;5003114;28;20533;-72
2022/07/24 09:59:51;;;;;;;6.63;3.13;;;24.10;99.90;;;;;;4993969;28;20037;-72
2022/07/24 10:02:20;;;;;;;6.38;3.05;;;24.20;99.90;;;;;;5010428;28;20129;-73
2022/07/24 10:04:47;;;;;;;5.55;3.10;;;24.20;99.90;;;;;;5012881;28;20080;-73
2022/07/24 10:07:15;;;;;;;5.65;3.30;;;24.30;99.90;;;;;;5009508;28;20065;-72
2022/07/24 10:09:43;;;;;;;7.57;3.95;;;24.40;99.90;;;;;;4998135;28;20506;-72
2022/07/24 10:12:15;;;;;;;5.68;3.15;;;24.50;99.90;;;;;;4992669;28;20387;-72
2022/07/24 10:14:42;;;;;;;5.50;2.78;;;24.50;99.90;;;;;;5014600;28;20041;-75
2022/07/24 10:17:11;;;;;;;5.93;3.00;;;24.60;99.90;;;;;;5014880;28;20087;-76
2022/07/24 10:19:45;;;;;;;5.65;3.10;;;24.70;99.90;;;;;;5013480;28;20040;-76
2022/07/24 10:22:14;;;;;;;6.60;3.13;;;24.70;99.90;;;;;;5012395;28;20405;-76
2022/07/24 10:25:04;;;;;;;6.47;3.63;;;24.80;99.90;;;;;;4998751;28;20041;-75
2022/07/24 10:27:35;;;;;;;5.60;3.10;;;24.80;99.90;;;;;;5013361;28;20052;-73
2022/07/24 10:30:05;;;;;;;7.72;3.25;;;24.90;99.90;;;;;;5013839;28;20041;-75
2022/07/24 10:32:32;;;;;;;9.18;3.60;;;25.00;99.90;;;;;;4995627;28;20063;-75
2022/07/24 10:35:16;;;;;;;5.60;3.33;;;25.00;99.90;;;;;;5012424;28;20076;-75
2022/07/24 10:37:55;;;;;;;6.75;3.17;;;25.00;99.90;;;;;;5003855;28;20490;-75
2022/07/24 10:40:44;;;;;;;6.18;3.40;;;25.00;99.90;;;;;;5024513;28;20041;-75
2022/07/24 10:43:11;;;;;;;6.72;3.10;;;25.00;99.90;;;;;;5017743;28;20049;-78
2022/07/24 10:45:53;;;;;;;6.32;3.28;;;25.10;99.90;;;;;;5004378;28;20068;-75
2022/07/24 10:48:23;;;;;;;6.75;3.38;;;25.10;99.90;;;;;;5015232;28;20091;-75
2022/07/24 10:51:07;;;;;;;6.25;3.35;;;25.00;99.90;;;;;;5020790;28;20045;-75
2022/07/24 10:53:39;;;;;;;5.57;3.03;;;24.90;99.90;;;;;;5005491;28;20050;-75
2022/07/24 10:56:13;;;;;;;;;;;24.80;99.90;;;;;;5006071;28;20124;-75
2022/07/24 10:59:08;;;;;;;6.38;3.40;;;24.70;99.90;;;;;;5019490;28;19924;-75
2022/07/24 11:01:47;;;;;;;6.55;2.90;;;24.70;99.90;;;;;;5022294;28;20041;-69
2022/07/24 11:04:19;;;;;;;6.68;3.03;;;24.70;99.90;;;;;;5001886;28;20056;-69
2022/07/24 11:06:50;;;;;;;7.40;3.03;;;24.60;99.90;;;;;;5009339;28;20121;-69
2022/07/24 11:09:18;;;;;;;7.32;3.08;;;24.60;99.90;;;;;;5004253;28;20041;-69
2022/07/24 11:11:53;;;;;;;6.85;3.20;;;24.50;99.90;;;;;;5003013;28;20033;-69
2022/07/24 11:14:23;;;;;;;5.63;3.20;;;24.60;99.90;;;;;;5019293;28;20350;-69
2022/07/24 11:16:49;;;;;;;5.78;3.17;;;24.60;99.90;;;;;;5021326;28;20045;-69
2022/07/24 11:19:14;;;;;;;7.15;3.28;;;24.70;99.90;;;;;;5003904;28;20033;-69
2022/07/24 11:21:42;;;;;;;5.55;3.10;;;24.90;99.90;;;;;;5003900;28;20029;-69
2022/07/24 11:24:14;;;;;;;5.78;3.08;;;24.90;99.90;;;;;;5002781;28;20112;-69
2022/07/24 11:26:50;;;;;;;;;;;25.00;99.90;;;;;;5031923;28;20045;-69
2022/07/24 11:29:22;;;;;;;5.72;3.20;;;25.10;99.90;;;;;;4998523;28;20385;-69
2022/07/24 11:31:51;;;;;;;7.15;3.33;;;25.20;99.90;;;;;;5025861;28;20395;-69
2022/07/24 11:34:16;;;;;;;5.95;2.92;;;25.20;99.90;;;;;;5038190;28;20120;-69
2022/07/24 11:36:45;;;;;;;6.97;3.35;;;25.30;99.90;;;;;;5040040;28;20136;-69
2022/07/24 11:39:11;;;;;;;8.93;3.13;;;25.40;99.90;;;;;;5039806;28;20453;-69
2022/07/24 11:41:48;;;;;;;7.18;3.53;;;25.40;99.90;;;;;;5039140;28;20033;-69
2022/07/24 11:44:20;;;;;;;5.35;3.10;;;25.50;99.90;;;;;;5038683;28;20064;-69
2022/07/24 11:46:46;;;;;;;5.35;3.30;;;25.60;99.90;;;;;;5026688;28;20033;-69
2022/07/24 11:49:11;;;;;;;6.05;2.75;;;25.60;99.90;;;;;;5038752;28;20382;-69
2022/07/24 11:51:45;;;;;;;6.45;3.10;;;25.70;99.90;;;;;;5022726;28;20032;-69
2022/07/24 11:54:12;;;;;;;5.75;2.70;;;25.60;99.90;;;;;;5036279;28;20033;-69
2022/07/24 11:56:38;;;;;;;7.10;3.05;;;25.60;99.90;;;;;;5035578;28;20056;-69
2022/07/24 11:59:04;;;;;;;5.30;3.03;;;25.60;99.90;;;;;;5037228;28;20108;-69
2022/07/24 12:01:30;;;;;;;4.68;2.50;;;25.60;99.30;;;;;;5019576;28;20541;-69
2022/07/24 12:03:59;;;;;;;4.85;2.95;;;25.60;99.30;;;;;;5034281;28;20129;-69
2022/07/24 12:06:26;;;;;;;7.00;3.13;;;25.60;99.40;;;;;;5040530;28;20094;-69
2022/07/24 12:09:17;;;;;;;4.90;2.75;;;25.60;99.50;;;;;;5034278;28;20048;-69
2022/07/24 12:11:42;;;;;;;7.82;3.20;;;25.60;99.90;;;;;;5034884;28;20049;-69
2022/07/24 12:14:19;;;;;;;6.25;2.70;;;25.70;99.90;;;;;;5020396;28;20045;-69
2022/07/24 12:16:52;;;;;;;5.60;2.70;;;25.70;99.80;;;;;;5016711;28;20455;-69
2022/07/24 12:19:22;;;;;;;4.82;3.15;;;25.70;99.20;;;;;;5019195;28;20033;-69
2022/07/24 12:21:50;;;;;;;5.88;3.08;;;25.70;99.30;;;;;;5019916;28;20044;-69
2022/07/24 12:24:16;;;;;;;6.15;3.00;;;25.70;99.90;;;;;;5036200;28;20367;-69
2022/07/24 12:26:49;;;;;;;7.18;2.80;;;25.70;99.90;;;;;;5020503;28;20048;-69
2022/07/24 12:29:15;;;;;;;7.47;2.60;;;25.90;99.30;;;;;;5019709;28;20381;-69
2022/07/24 12:31:40;;;;;;;7.47;2.97;;;25.80;98.70;;;;;;5031794;28;20053;-70
2022/07/24 12:34:06;;;;;;;4.75;2.85;;;25.90;98.80;;;;;;5033221;28;20053;-69
2022/07/24 12:36:32;;;;;;;5.05;3.05;;;25.80;99.40;;;;;;5020139;28;20048;-70
2022/07/24 12:38:57;;;;;;;5.28;2.80;;;25.90;99.90;;;;;;5035007;28;20043;-69
2022/07/24 12:41:26;;;;;;;7.35;3.10;;;26.00;99.30;;;;;;5029811;28;20044;-69
2022/07/24 12:44:05;;;;;;;5.53;3.15;;;26.10;98.40;;;;;;5017252;28;20091;-69
2022/07/24 12:46:32;;;;;;;6.22;2.95;;;26.00;98.60;;;;;;5035793;28;20033;-69
2022/07/24 12:49:12;;;;;;;5.72;3.25;;;25.80;99.90;;;;;;5036581;28;20056;-69